sensor_id;sensor_type;location;lat;lon;timestamp;P1;durP1;ratioP1;P2;durP2;ratioP2
60060;SDS011;45933;51.336;12.612;2022-11-20T00:00:00;24.20;;;14.53;;
60060;SDS011;45933;51.336;12.612;2022-11-20T00:02:25;24.57;;;14.13;;
60060;SDS011;45933;51.336;12.612;2022-11-20T00:04:51;25.33;;;14.90;;
60060;SDS011;45933;51.336;12.612;2022-11-20T00:07:16;22.23;;;13.37;;
60060;SDS011;45933;51.336;12.612;2022-11-20T00:09:42;21.23;;;13.03;;
60060;SDS011;45933;51.336;12.612;2022-11-20T00:12:07;23.03;;;14.07;;
60060;SDS011;45933;51.336;12.612;2022-11-20T00:14:32;22.67;;;13.57;;
60060;SDS011;45933;51.336;12.612;2022-11-20T00:16:58;25.93;;;14.63;;
60060;SDS011;45933;51.336;12.612;2022-11-20T00:19:23;23.93;;;14.30;;
60060;SDS011;45933;51.336;12.612;2022-11-20T00:21:48;24.87;;;15.10;;
60060;SDS011;45933;51.336;12.612;2022-11-20T00:24:16;26.93;;;15.53;;
60060;SDS011;45933;51.336;12.612;2022-11-20T00:26:41;24.20;;;15.27;;
60060;SDS011;45933;51.336;12.612;2022-11-20T00:29:08;28.03;;;15.23;;
60060;SDS011;45933;51.336;12.612;2022-11-20T00:31:34;31.57;;;17.87;;
60060;SDS011;45933;51.336;12.612;2022-11-20T00:34:00;29.07;;;16.57;;
60060;SDS011;45933;51.336;12.612;2022-11-20T00:36:26;26.07;;;16.03;;
60060;SDS011;45933;51.336;12.612;2022-11-20T00:38:53;27.87;;;16.77;;
60060;SDS011;45933;51.336;12.612;2022-11-20T00:41:19;27.87;;;16.63;;
60060;SDS011;45933;51.336;12.612;2022-11-20T00:43:45;27.23;;;15.13;;
60060;SDS011;45933;51.336;12.612;2022-11-20T00:46:12;30.80;;;16.50;;
60060;SDS011;45933;51.336;12.612;2022-11-20T00:48:40;28.43;;;16.63;;
60060;SDS011;45933;51.336;12.612;2022-11-20T00:51:06;27.17;;;15.70;;
60060;SDS011;45933;51.336;12.612;2022-11-20T00:53:32;27.50;;;14.63;;
60060;SDS011;45933;51.336;12.612;2022-11-20T00:55:58;27.77;;;15.90;;
60060;SDS011;45933;51.336;12.612;2022-11-20T00:58:28;25.43;;;15.40;;
60060;SDS011;45933;51.336;12.612;2022-11-20T01:01:03;25.30;;;14.53;;
60060;SDS011;45933;51.336;12.612;2022-11-20T01:03:37;24.70;;;15.20;;
60060;SDS011;45933;51.336;12.612;2022-11-20T01:06:06;26.40;;;15.47;;
60060;SDS011;45933;51.336;12.612;2022-11-20T01:08:34;27.07;;;15.77;;
60060;SDS011;45933;51.336;12.612;2022-11-20T01:11:01;25.57;;;14.53;;
60060;SDS011;45933;51.336;12.612;2022-11-20T01:13:31;24.33;;;14.43;;
60060;SDS011;45933;51.336;12.612;2022-11-20T01:16:04;23.77;;;13.83;;
60060;SDS011;45933;51.336;12.612;2022-11-20T01:18:39;23.13;;;14.30;;
60060;SDS011;45933;51.336;12.612;2022-11-20T01:21:14;25.70;;;14.83;;
60060;SDS011;45933;51.336;12.612;2022-11-20T01:23:44;24.27;;;14.20;;
60060;SDS011;45933;51.336;12.612;2022-11-20T01:26:11;24.83;;;14.37;;
60060;SDS011;45933;51.336;12.612;2022-11-20T01:28:39;26.17;;;14.80;;
60060;SDS011;45933;51.336;12.612;2022-11-20T01:33:41;23.30;;;14.50;;
60060;SDS011;45933;51.336;12.612;2022-11-20T01:36:08;26.13;;;15.93;;
60060;SDS011;45933;51.336;12.612;2022-11-20T01:38:34;24.17;;;14.37;;
60060;SDS011;45933;51.336;12.612;2022-11-20T01:41:00;27.87;;;14.20;;
60060;SDS011;45933;51.336;12.612;2022-11-20T01:43:26;24.93;;;14.93;;
60060;SDS011;45933;51.336;12.612;2022-11-20T01:48:51;25.53;;;16.30;;
60060;SDS011;45933;51.336;12.612;2022-11-20T01:51:28;27.57;;;15.70;;
60060;SDS011;45933;51.336;12.612;2022-11-20T01:54:11;28.67;;;15.13;;
60060;SDS011;45933;51.336;12.612;2022-11-20T01:56:41;28.53;;;15.47;;
60060;SDS011;45933;51.336;12.612;2022-11-20T01:59:09;27.63;;;16.40;;
60060;SDS011;45933;51.336;12.612;2022-11-20T02:01:36;25.73;;;15.37;;
60060;SDS011;45933;51.336;12.612;2022-11-20T02:04:01;27.63;;;15.87;;
60060;SDS011;45933;51.336;12.612;2022-11-20T02:06:40;26.17;;;15.03;;
60060;SDS011;45933;51.336;12.612;2022-11-20T02:09:09;27.17;;;15.37;;
60060;SDS011;45933;51.336;12.612;2022-11-20T02:11:35;28.87;;;16.30;;
60060;SDS011;45933;51.336;12.612;2022-11-20T02:14:00;31.00;;;17.73;;
60060;SDS011;45933;51.336;12.612;2022-11-20T02:16:27;29.93;;;17.90;;
60060;SDS011;45933;51.336;12.612;2022-11-20T02:19:01;30.13;;;17.23;;
60060;SDS011;45933;51.336;12.612;2022-11-20T02:24:16;30.53;;;17.43;;
60060;SDS011;45933;51.336;12.612;2022-11-20T02:26:46;30.47;;;16.47;;
60060;SDS011;45933;51.336;12.612;2022-11-20T02:29:38;32.47;;;16.73;;
60060;SDS011;45933;51.336;12.612;2022-11-20T02:32:04;29.60;;;16.53;;
60060;SDS011;45933;51.336;12.612;2022-11-20T02:34:29;31.03;;;16.60;;
60060;SDS011;45933;51.336;12.612;2022-11-20T02:36:55;30.93;;;16.23;;
60060;SDS011;45933;51.336;12.612;2022-11-20T02:39:22;27.20;;;15.87;;
60060;SDS011;45933;51.336;12.612;2022-11-20T02:41:51;29.03;;;16.67;;
60060;SDS011;45933;51.336;12.612;2022-11-20T02:44:21;29.40;;;17.17;;
60060;SDS011;45933;51.336;12.612;2022-11-20T02:46:46;27.50;;;16.10;;
60060;SDS011;45933;51.336;12.612;2022-11-20T02:49:12;31.60;;;17.77;;
60060;SDS011;45933;51.336;12.612;2022-11-20T02:51:37;33.97;;;17.97;;
60060;SDS011;45933;51.336;12.612;2022-11-20T02:54:02;33.97;;;18.73;;
60060;SDS011;45933;51.336;12.612;2022-11-20T02:56:28;32.27;;;16.80;;
60060;SDS011;45933;51.336;12.612;2022-11-20T02:58:54;32.90;;;17.37;;
60060;SDS011;45933;51.336;12.612;2022-11-20T03:01:19;33.43;;;18.20;;
60060;SDS011;45933;51.336;12.612;2022-11-20T03:03:45;33.50;;;18.10;;
60060;SDS011;45933;51.336;12.612;2022-11-20T03:06:10;32.73;;;17.47;;
60060;SDS011;45933;51.336;12.612;2022-11-20T03:08:36;34.20;;;18.53;;
60060;SDS011;45933;51.336;12.612;2022-11-20T03:11:02;34.27;;;19.03;;
60060;SDS011;45933;51.336;12.612;2022-11-20T03:13:29;34.50;;;18.90;;
60060;SDS011;45933;51.336;12.612;2022-11-20T03:15:54;32.60;;;18.23;;
60060;SDS011;45933;51.336;12.612;2022-11-20T03:18:19;32.43;;;18.53;;
60060;SDS011;45933;51.336;12.612;2022-11-20T03:20:45;35.53;;;19.27;;
60060;SDS011;45933;51.336;12.612;2022-11-20T03:23:10;35.50;;;19.10;;
60060;SDS011;45933;51.336;12.612;2022-11-20T03:25:35;36.23;;;19.80;;
60060;SDS011;45933;51.336;12.612;2022-11-20T03:28:01;35.50;;;20.13;;
60060;SDS011;45933;51.336;12.612;2022-11-20T03:30:26;32.10;;;18.33;;
60060;SDS011;45933;51.336;12.612;2022-11-20T03:32:52;37.00;;;20.13;;
60060;SDS011;45933;51.336;12.612;2022-11-20T03:35:18;32.60;;;19.30;;
60060;SDS011;45933;51.336;12.612;2022-11-20T03:37:44;35.43;;;18.97;;
60060;SDS011;45933;51.336;12.612;2022-11-20T03:40:10;37.20;;;20.60;;
60060;SDS011;45933;51.336;12.612;2022-11-20T03:42:36;36.83;;;19.43;;
60060;SDS011;45933;51.336;12.612;2022-11-20T03:45:10;42.40;;;21.30;;
60060;SDS011;45933;51.336;12.612;2022-11-20T03:47:38;38.97;;;21.00;;
60060;SDS011;45933;51.336;12.612;2022-11-20T03:50:03;40.60;;;21.60;;
60060;SDS011;45933;51.336;12.612;2022-11-20T03:52:29;37.70;;;20.37;;
60060;SDS011;45933;51.336;12.612;2022-11-20T03:54:54;39.07;;;21.97;;
60060;SDS011;45933;51.336;12.612;2022-11-20T03:57:19;38.60;;;21.50;;
60060;SDS011;45933;51.336;12.612;2022-11-20T03:59:45;37.83;;;20.63;;
60060;SDS011;45933;51.336;12.612;2022-11-20T04:02:10;36.57;;;20.97;;
60060;SDS011;45933;51.336;12.612;2022-11-20T04:04:36;39.03;;;21.50;;
60060;SDS011;45933;51.336;12.612;2022-11-20T04:07:01;38.20;;;20.90;;
60060;SDS011;45933;51.336;12.612;2022-11-20T04:09:27;32.27;;;18.37;;
60060;SDS011;45933;51.336;12.612;2022-11-20T04:11:52;40.70;;;21.97;;
60060;SDS011;45933;51.336;12.612;2022-11-20T04:14:17;38.93;;;21.13;;
60060;SDS011;45933;51.336;12.612;2022-11-20T04:16:43;40.17;;;21.77;;
60060;SDS011;45933;51.336;12.612;2022-11-20T04:19:12;37.37;;;20.87;;
60060;SDS011;45933;51.336;12.612;2022-11-20T04:21:40;40.37;;;22.10;;
60060;SDS011;45933;51.336;12.612;2022-11-20T04:24:06;39.77;;;21.50;;
60060;SDS011;45933;51.336;12.612;2022-11-20T04:26:32;36.33;;;20.33;;
60060;SDS011;45933;51.336;12.612;2022-11-20T04:28:58;39.97;;;20.17;;
60060;SDS011;45933;51.336;12.612;2022-11-20T04:31:24;42.33;;;23.07;;
60060;SDS011;45933;51.336;12.612;2022-11-20T04:33:53;38.83;;;21.23;;
60060;SDS011;45933;51.336;12.612;2022-11-20T04:36:20;37.17;;;20.67;;
60060;SDS011;45933;51.336;12.612;2022-11-20T04:38:52;35.10;;;20.07;;
60060;SDS011;45933;51.336;12.612;2022-11-20T04:41:18;41.93;;;22.13;;
60060;SDS011;45933;51.336;12.612;2022-11-20T04:43:46;38.07;;;20.87;;
60060;SDS011;45933;51.336;12.612;2022-11-20T04:46:13;37.00;;;19.17;;
60060;SDS011;45933;51.336;12.612;2022-11-20T04:48:39;37.77;;;20.30;;
60060;SDS011;45933;51.336;12.612;2022-11-20T04:51:04;37.50;;;20.77;;
60060;SDS011;45933;51.336;12.612;2022-11-20T04:53:30;37.57;;;19.77;;
60060;SDS011;45933;51.336;12.612;2022-11-20T04:56:03;37.50;;;19.73;;
60060;SDS011;45933;51.336;12.612;2022-11-20T04:58:29;38.57;;;19.90;;
60060;SDS011;45933;51.336;12.612;2022-11-20T05:01:05;40.07;;;20.40;;
60060;SDS011;45933;51.336;12.612;2022-11-20T05:03:32;37.57;;;19.53;;
60060;SDS011;45933;51.336;12.612;2022-11-20T05:06:01;35.50;;;18.80;;
60060;SDS011;45933;51.336;12.612;2022-11-20T05:08:29;34.27;;;18.93;;
60060;SDS011;45933;51.336;12.612;2022-11-20T05:10:59;37.20;;;20.63;;
60060;SDS011;45933;51.336;12.612;2022-11-20T05:13:35;35.57;;;20.23;;
60060;SDS011;45933;51.336;12.612;2022-11-20T05:16:02;39.40;;;21.70;;
60060;SDS011;45933;51.336;12.612;2022-11-20T05:18:28;37.47;;;20.40;;
60060;SDS011;45933;51.336;12.612;2022-11-20T05:20:55;36.97;;;19.10;;
60060;SDS011;45933;51.336;12.612;2022-11-20T05:23:21;37.60;;;21.47;;
60060;SDS011;45933;51.336;12.612;2022-11-20T05:25:46;38.90;;;21.47;;
60060;SDS011;45933;51.336;12.612;2022-11-20T05:28:12;35.90;;;20.10;;
60060;SDS011;45933;51.336;12.612;2022-11-20T05:30:37;36.23;;;20.03;;
60060;SDS011;45933;51.336;12.612;2022-11-20T05:33:02;36.73;;;19.77;;
60060;SDS011;45933;51.336;12.612;2022-11-20T05:35:28;36.97;;;18.93;;
60060;SDS011;45933;51.336;12.612;2022-11-20T05:37:53;34.10;;;19.17;;
60060;SDS011;45933;51.336;12.612;2022-11-20T05:40:18;33.17;;;19.57;;
60060;SDS011;45933;51.336;12.612;2022-11-20T05:42:44;33.73;;;18.87;;
60060;SDS011;45933;51.336;12.612;2022-11-20T05:45:09;34.07;;;18.93;;
60060;SDS011;45933;51.336;12.612;2022-11-20T05:47:35;33.20;;;18.63;;
60060;SDS011;45933;51.336;12.612;2022-11-20T05:50:00;35.40;;;19.67;;
60060;SDS011;45933;51.336;12.612;2022-11-20T05:52:29;32.90;;;18.50;;
60060;SDS011;45933;51.336;12.612;2022-11-20T05:54:55;33.70;;;19.20;;
60060;SDS011;45933;51.336;12.612;2022-11-20T05:57:20;33.83;;;18.27;;
60060;SDS011;45933;51.336;12.612;2022-11-20T05:59:45;34.77;;;18.43;;
60060;SDS011;45933;51.336;12.612;2022-11-20T06:02:11;31.43;;;17.47;;
60060;SDS011;45933;51.336;12.612;2022-11-20T06:04:36;31.87;;;18.03;;
60060;SDS011;45933;51.336;12.612;2022-11-20T06:07:01;34.70;;;19.07;;
60060;SDS011;45933;51.336;12.612;2022-11-20T06:09:27;31.07;;;17.13;;
60060;SDS011;45933;51.336;12.612;2022-11-20T06:11:52;34.47;;;18.30;;
60060;SDS011;45933;51.336;12.612;2022-11-20T06:14:18;33.70;;;18.93;;
60060;SDS011;45933;51.336;12.612;2022-11-20T06:16:43;34.83;;;18.60;;
60060;SDS011;45933;51.336;12.612;2022-11-20T06:19:08;32.23;;;18.20;;
60060;SDS011;45933;51.336;12.612;2022-11-20T06:21:34;32.13;;;18.63;;
60060;SDS011;45933;51.336;12.612;2022-11-20T06:23:59;35.30;;;19.20;;
60060;SDS011;45933;51.336;12.612;2022-11-20T06:26:25;31.30;;;17.77;;
60060;SDS011;45933;51.336;12.612;2022-11-20T06:28:52;31.97;;;17.50;;
60060;SDS011;45933;51.336;12.612;2022-11-20T06:31:19;33.80;;;17.47;;
60060;SDS011;45933;51.336;12.612;2022-11-20T06:33:46;36.07;;;18.20;;
60060;SDS011;45933;51.336;12.612;2022-11-20T06:36:13;32.53;;;17.50;;
60060;SDS011;45933;51.336;12.612;2022-11-20T06:38:40;30.30;;;17.77;;
60060;SDS011;45933;51.336;12.612;2022-11-20T06:41:07;31.27;;;17.63;;
60060;SDS011;45933;51.336;12.612;2022-11-20T06:43:35;32.10;;;16.83;;
60060;SDS011;45933;51.336;12.612;2022-11-20T06:46:00;32.87;;;17.00;;
60060;SDS011;45933;51.336;12.612;2022-11-20T06:48:26;36.33;;;19.57;;
60060;SDS011;45933;51.336;12.612;2022-11-20T06:50:53;34.87;;;19.93;;
60060;SDS011;45933;51.336;12.612;2022-11-20T06:53:18;29.17;;;17.23;;
60060;SDS011;45933;51.336;12.612;2022-11-20T06:55:44;30.27;;;17.03;;
60060;SDS011;45933;51.336;12.612;2022-11-20T06:58:11;29.37;;;15.97;;
60060;SDS011;45933;51.336;12.612;2022-11-20T07:00:37;28.80;;;16.17;;
60060;SDS011;45933;51.336;12.612;2022-11-20T07:03:06;27.87;;;16.77;;
60060;SDS011;45933;51.336;12.612;2022-11-20T07:05:33;28.57;;;16.10;;
60060;SDS011;45933;51.336;12.612;2022-11-20T07:08:00;30.43;;;16.17;;
60060;SDS011;45933;51.336;12.612;2022-11-20T07:10:25;30.13;;;17.37;;
60060;SDS011;45933;51.336;12.612;2022-11-20T07:12:51;29.43;;;16.90;;
60060;SDS011;45933;51.336;12.612;2022-11-20T07:15:17;33.67;;;18.37;;
60060;SDS011;45933;51.336;12.612;2022-11-20T07:17:43;29.33;;;16.47;;
60060;SDS011;45933;51.336;12.612;2022-11-20T07:20:09;29.77;;;16.50;;
60060;SDS011;45933;51.336;12.612;2022-11-20T07:22:34;29.90;;;16.70;;
60060;SDS011;45933;51.336;12.612;2022-11-20T07:25:00;26.73;;;16.33;;
60060;SDS011;45933;51.336;12.612;2022-11-20T07:27:26;26.77;;;15.33;;
60060;SDS011;45933;51.336;12.612;2022-11-20T07:29:52;29.93;;;16.80;;
60060;SDS011;45933;51.336;12.612;2022-11-20T07:32:17;30.53;;;16.97;;
60060;SDS011;45933;51.336;12.612;2022-11-20T07:34:42;28.43;;;15.70;;
60060;SDS011;45933;51.336;12.612;2022-11-20T07:37:08;25.10;;;15.97;;
60060;SDS011;45933;51.336;12.612;2022-11-20T07:39:33;32.73;;;17.17;;
60060;SDS011;45933;51.336;12.612;2022-11-20T07:41:58;32.60;;;17.00;;
60060;SDS011;45933;51.336;12.612;2022-11-20T07:44:24;29.60;;;15.70;;
60060;SDS011;45933;51.336;12.612;2022-11-20T07:46:49;34.23;;;17.67;;
60060;SDS011;45933;51.336;12.612;2022-11-20T07:49:14;32.03;;;17.90;;
60060;SDS011;45933;51.336;12.612;2022-11-20T07:51:40;29.43;;;17.03;;
60060;SDS011;45933;51.336;12.612;2022-11-20T07:54:05;26.97;;;16.47;;
60060;SDS011;45933;51.336;12.612;2022-11-20T07:56:30;27.07;;;15.77;;
60060;SDS011;45933;51.336;12.612;2022-11-20T07:58:56;32.27;;;17.07;;
60060;SDS011;45933;51.336;12.612;2022-11-20T08:01:21;25.20;;;16.03;;
60060;SDS011;45933;51.336;12.612;2022-11-20T08:03:46;24.37;;;15.17;;
60060;SDS011;45933;51.336;12.612;2022-11-20T08:06:11;26.97;;;16.47;;
60060;SDS011;45933;51.336;12.612;2022-11-20T08:08:37;23.00;;;15.43;;
60060;SDS011;45933;51.336;12.612;2022-11-20T08:11:04;24.63;;;15.90;;
60060;SDS011;45933;51.336;12.612;2022-11-20T08:13:48;24.63;;;15.70;;
60060;SDS011;45933;51.336;12.612;2022-11-20T08:16:32;24.60;;;15.70;;
60060;SDS011;45933;51.336;12.612;2022-11-20T08:18:57;23.90;;;14.93;;
60060;SDS011;45933;51.336;12.612;2022-11-20T08:21:23;22.37;;;15.20;;
60060;SDS011;45933;51.336;12.612;2022-11-20T08:23:48;24.60;;;15.60;;
60060;SDS011;45933;51.336;12.612;2022-11-20T08:26:14;24.83;;;16.27;;
60060;SDS011;45933;51.336;12.612;2022-11-20T08:28:39;28.13;;;16.30;;
60060;SDS011;45933;51.336;12.612;2022-11-20T08:31:05;26.37;;;15.97;;
60060;SDS011;45933;51.336;12.612;2022-11-20T08:33:34;24.83;;;15.80;;
60060;SDS011;45933;51.336;12.612;2022-11-20T08:35:59;27.60;;;16.97;;
60060;SDS011;45933;51.336;12.612;2022-11-20T08:38:26;23.33;;;16.47;;
60060;SDS011;45933;51.336;12.612;2022-11-20T08:40:51;23.70;;;16.03;;
60060;SDS011;45933;51.336;12.612;2022-11-20T08:43:35;25.83;;;16.73;;
60060;SDS011;45933;51.336;12.612;2022-11-20T08:46:00;24.13;;;16.37;;
60060;SDS011;45933;51.336;12.612;2022-11-20T08:48:25;25.07;;;16.83;;
60060;SDS011;45933;51.336;12.612;2022-11-20T08:50:51;33.30;;;24.37;;
60060;SDS011;45933;51.336;12.612;2022-11-20T08:53:16;28.00;;;19.57;;
60060;SDS011;45933;51.336;12.612;2022-11-20T08:55:41;32.57;;;21.73;;
60060;SDS011;45933;51.336;12.612;2022-11-20T08:58:07;30.27;;;21.67;;
60060;SDS011;45933;51.336;12.612;2022-11-20T09:00:32;26.83;;;18.67;;
60060;SDS011;45933;51.336;12.612;2022-11-20T09:02:58;27.87;;;19.43;;
60060;SDS011;45933;51.336;12.612;2022-11-20T09:05:24;26.00;;;18.07;;
60060;SDS011;45933;51.336;12.612;2022-11-20T09:07:49;27.80;;;19.27;;
60060;SDS011;45933;51.336;12.612;2022-11-20T09:10:15;25.08;;;18.50;;
60060;SDS011;45933;51.336;12.612;2022-11-20T09:12:40;24.30;;;17.70;;
60060;SDS011;45933;51.336;12.612;2022-11-20T09:15:06;25.55;;;19.02;;
60060;SDS011;45933;51.336;12.612;2022-11-20T09:17:32;24.85;;;18.10;;
60060;SDS011;45933;51.336;12.612;2022-11-20T09:19:57;26.55;;;18.95;;
60060;SDS011;45933;51.336;12.612;2022-11-20T09:22:23;27.52;;;20.80;;
60060;SDS011;45933;51.336;12.612;2022-11-20T09:24:48;72.55;;;51.97;;
60060;SDS011;45933;51.336;12.612;2022-11-20T09:27:14;33.95;;;26.45;;
60060;SDS011;45933;51.336;12.612;2022-11-20T09:29:39;32.47;;;23.33;;
60060;SDS011;45933;51.336;12.612;2022-11-20T09:32:04;28.88;;;23.45;;
60060;SDS011;45933;51.336;12.612;2022-11-20T09:34:30;26.20;;;20.08;;
60060;SDS011;45933;51.336;12.612;2022-11-20T09:36:55;23.58;;;18.75;;
60060;SDS011;45933;51.336;12.612;2022-11-20T09:39:20;26.80;;;20.65;;
60060;SDS011;45933;51.336;12.612;2022-11-20T09:41:58;27.90;;;19.92;;
60060;SDS011;45933;51.336;12.612;2022-11-20T09:47:23;25.38;;;18.88;;
60060;SDS011;45933;51.336;12.612;2022-11-20T09:50:16;24.02;;;19.48;;
60060;SDS011;45933;51.336;12.612;2022-11-20T09:55:59;22.33;;;16.73;;
60060;SDS011;45933;51.336;12.612;2022-11-20T09:58:35;21.30;;;16.92;;
60060;SDS011;45933;51.336;12.612;2022-11-20T10:01:14;19.63;;;16.58;;
60060;SDS011;45933;51.336;12.612;2022-11-20T10:03:55;21.95;;;17.45;;
60060;SDS011;45933;51.336;12.612;2022-11-20T10:09:36;21.38;;;18.42;;
60060;SDS011;45933;51.336;12.612;2022-11-20T10:18:04;19.92;;;16.45;;
60060;SDS011;45933;51.336;12.612;2022-11-20T10:28:46;18.30;;;14.32;;
60060;SDS011;45933;51.336;12.612;2022-11-20T10:34:00;17.23;;;14.25;;
60060;SDS011;45933;51.336;12.612;2022-11-20T10:36:33;19.10;;;15.10;;
60060;SDS011;45933;51.336;12.612;2022-11-20T10:39:04;16.92;;;13.57;;
60060;SDS011;45933;51.336;12.612;2022-11-20T10:41:42;17.00;;;13.32;;
60060;SDS011;45933;51.336;12.612;2022-11-20T10:44:20;16.40;;;13.15;;
60060;SDS011;45933;51.336;12.612;2022-11-20T10:47:13;15.15;;;12.73;;
60060;SDS011;45933;51.336;12.612;2022-11-20T10:49:40;16.48;;;12.55;;
60060;SDS011;45933;51.336;12.612;2022-11-20T10:52:13;16.67;;;12.50;;
60060;SDS011;45933;51.336;12.612;2022-11-20T10:57:46;17.47;;;12.77;;
60060;SDS011;45933;51.336;12.612;2022-11-20T11:00:13;15.47;;;12.17;;
60060;SDS011;45933;51.336;12.612;2022-11-20T11:09:25;17.00;;;12.20;;
60060;SDS011;45933;51.336;12.612;2022-11-20T11:11:57;16.07;;;11.87;;
60060;SDS011;45933;51.336;12.612;2022-11-20T11:14:22;17.53;;;12.43;;
60060;SDS011;45933;51.336;12.612;2022-11-20T11:16:53;15.77;;;11.53;;
60060;SDS011;45933;51.336;12.612;2022-11-20T11:19:20;15.10;;;11.07;;
60060;SDS011;45933;51.336;12.612;2022-11-20T11:21:55;13.50;;;10.37;;
60060;SDS011;45933;51.336;12.612;2022-11-20T11:24:22;14.43;;;10.10;;
60060;SDS011;45933;51.336;12.612;2022-11-20T11:26:58;15.10;;;10.43;;
60060;SDS011;45933;51.336;12.612;2022-11-20T11:29:34;16.13;;;11.47;;
60060;SDS011;45933;51.336;12.612;2022-11-20T11:32:07;31.47;;;19.17;;
60060;SDS011;45933;51.336;12.612;2022-11-20T11:35:05;25.47;;;17.03;;
60060;SDS011;45933;51.336;12.612;2022-11-20T11:37:37;17.50;;;12.97;;
60060;SDS011;45933;51.336;12.612;2022-11-20T11:40:04;15.37;;;11.00;;
60060;SDS011;45933;51.336;12.612;2022-11-20T11:42:31;14.40;;;9.70;;
60060;SDS011;45933;51.336;12.612;2022-11-20T11:44:56;13.20;;;9.57;;
60060;SDS011;45933;51.336;12.612;2022-11-20T11:52:48;11.13;;;8.13;;
60060;SDS011;45933;51.336;12.612;2022-11-20T11:55:33;14.20;;;9.60;;
60060;SDS011;45933;51.336;12.612;2022-11-20T11:58:14;15.53;;;9.93;;
60060;SDS011;45933;51.336;12.612;2022-11-20T12:03:49;12.50;;;8.47;;
60060;SDS011;45933;51.336;12.612;2022-11-20T12:06:24;15.00;;;8.70;;
60060;SDS011;45933;51.336;12.612;2022-11-20T12:08:56;11.87;;;8.00;;
60060;SDS011;45933;51.336;12.612;2022-11-20T12:11:33;11.03;;;7.00;;
60060;SDS011;45933;51.336;12.612;2022-11-20T12:16:52;9.20;;;6.47;;
60060;SDS011;45933;51.336;12.612;2022-11-20T12:19:20;12.17;;;7.60;;
60060;SDS011;45933;51.336;12.612;2022-11-20T12:21:53;31.17;;;19.73;;
60060;SDS011;45933;51.336;12.612;2022-11-20T12:48:38;10.73;;;8.00;;
60060;SDS011;45933;51.336;12.612;2022-11-20T12:51:16;13.67;;;8.83;;
60060;SDS011;45933;51.336;12.612;2022-11-20T13:02:24;11.20;;;8.57;;
60060;SDS011;45933;51.336;12.612;2022-11-20T13:07:48;10.85;;;9.02;;
60060;SDS011;45933;51.336;12.612;2022-11-20T13:10:19;11.52;;;8.77;;
60060;SDS011;45933;51.336;12.612;2022-11-20T13:12:56;11.27;;;9.18;;
60060;SDS011;45933;51.336;12.612;2022-11-20T13:15:49;11.43;;;9.18;;
60060;SDS011;45933;51.336;12.612;2022-11-20T13:18:24;12.00;;;9.27;;
60060;SDS011;45933;51.336;12.612;2022-11-20T13:20:50;10.77;;;9.05;;
60060;SDS011;45933;51.336;12.612;2022-11-20T13:23:25;11.60;;;9.63;;
60060;SDS011;45933;51.336;12.612;2022-11-20T13:26:37;12.48;;;9.55;;
60060;SDS011;45933;51.336;12.612;2022-11-20T13:28:42;10.52;;;9.13;;
60060;SDS011;45933;51.336;12.612;2022-11-20T13:31:41;12.38;;;9.57;;
60060;SDS011;45933;51.336;12.612;2022-11-20T13:34:02;11.38;;;9.48;;
60060;SDS011;45933;51.336;12.612;2022-11-20T13:36:29;11.10;;;9.10;;
60060;SDS011;45933;51.336;12.612;2022-11-20T13:38:56;12.02;;;9.20;;
60060;SDS011;45933;51.336;12.612;2022-11-20T13:43:53;12.77;;;9.60;;
60060;SDS011;45933;51.336;12.612;2022-11-20T13:46:23;12.80;;;10.20;;
60060;SDS011;45933;51.336;12.612;2022-11-20T13:48:59;21.00;;;14.50;;
60060;SDS011;45933;51.336;12.612;2022-11-20T13:51:48;12.97;;;10.43;;
60060;SDS011;45933;51.336;12.612;2022-11-20T13:56:59;14.77;;;11.00;;
60060;SDS011;45933;51.336;12.612;2022-11-20T13:59:49;13.83;;;9.77;;
60060;SDS011;45933;51.336;12.612;2022-11-20T14:02:22;13.50;;;9.73;;
60060;SDS011;45933;51.336;12.612;2022-11-20T14:04:51;13.50;;;10.43;;
60060;SDS011;45933;51.336;12.612;2022-11-20T14:07:19;16.10;;;11.10;;
60060;SDS011;45933;51.336;12.612;2022-11-20T14:09:51;14.80;;;11.30;;
60060;SDS011;45933;51.336;12.612;2022-11-20T14:12:18;14.43;;;10.53;;
60060;SDS011;45933;51.336;12.612;2022-11-20T14:14:51;14.00;;;9.70;;
60060;SDS011;45933;51.336;12.612;2022-11-20T14:17:22;15.43;;;9.73;;
60060;SDS011;45933;51.336;12.612;2022-11-20T14:19:50;12.33;;;8.97;;
60060;SDS011;45933;51.336;12.612;2022-11-20T14:27:50;11.33;;;8.73;;
60060;SDS011;45933;51.336;12.612;2022-11-20T14:30:21;14.40;;;8.47;;
60060;SDS011;45933;51.336;12.612;2022-11-20T14:32:54;11.17;;;8.67;;
60060;SDS011;45933;51.336;12.612;2022-11-20T14:35:27;13.47;;;8.80;;
60060;SDS011;45933;51.336;12.612;2022-11-20T14:37:54;15.00;;;8.70;;
60060;SDS011;45933;51.336;12.612;2022-11-20T14:42:51;12.60;;;8.67;;
60060;SDS011;45933;51.336;12.612;2022-11-20T14:45:17;12.53;;;8.90;;
60060;SDS011;45933;51.336;12.612;2022-11-20T14:47:44;12.77;;;8.97;;
60060;SDS011;45933;51.336;12.612;2022-11-20T14:50:29;12.80;;;8.77;;
60060;SDS011;45933;51.336;12.612;2022-11-20T14:52:59;13.70;;;10.00;;
60060;SDS011;45933;51.336;12.612;2022-11-20T14:55:26;36.67;;;16.57;;
60060;SDS011;45933;51.336;12.612;2022-11-20T14:58:01;27.17;;;14.80;;
60060;SDS011;45933;51.336;12.612;2022-11-20T15:00:29;18.80;;;11.67;;
60060;SDS011;45933;51.336;12.612;2022-11-20T15:02:55;16.30;;;11.07;;
60060;SDS011;45933;51.336;12.612;2022-11-20T15:05:22;53.60;;;29.57;;
60060;SDS011;45933;51.336;12.612;2022-11-20T15:07:50;79.30;;;43.20;;
60060;SDS011;45933;51.336;12.612;2022-11-20T15:10:36;42.53;;;24.93;;
60060;SDS011;45933;51.336;12.612;2022-11-20T15:13:04;26.97;;;16.60;;
60060;SDS011;45933;51.336;12.612;2022-11-20T15:15:38;23.70;;;15.20;;
60060;SDS011;45933;51.336;12.612;2022-11-20T15:18:19;19.70;;;12.60;;
60060;SDS011;45933;51.336;12.612;2022-11-20T15:20:47;19.23;;;12.53;;
60060;SDS011;45933;51.336;12.612;2022-11-20T15:23:14;17.97;;;11.80;;
60060;SDS011;45933;51.336;12.612;2022-11-20T15:25:42;16.13;;;10.67;;
60060;SDS011;45933;51.336;12.612;2022-11-20T15:28:12;13.87;;;9.53;;
60060;SDS011;45933;51.336;12.612;2022-11-20T15:30:44;17.90;;;11.17;;
60060;SDS011;45933;51.336;12.612;2022-11-20T15:33:11;17.60;;;11.40;;
60060;SDS011;45933;51.336;12.612;2022-11-20T15:35:37;17.33;;;10.53;;
60060;SDS011;45933;51.336;12.612;2022-11-20T15:38:03;22.37;;;14.00;;
60060;SDS011;45933;51.336;12.612;2022-11-20T15:40:28;18.03;;;11.53;;
60060;SDS011;45933;51.336;12.612;2022-11-20T15:42:53;14.87;;;10.60;;
60060;SDS011;45933;51.336;12.612;2022-11-20T15:45:28;16.23;;;10.27;;
60060;SDS011;45933;51.336;12.612;2022-11-20T15:47:58;16.33;;;10.37;;
60060;SDS011;45933;51.336;12.612;2022-11-20T15:50:25;21.27;;;12.10;;
60060;SDS011;45933;51.336;12.612;2022-11-20T15:52:54;21.63;;;12.70;;
60060;SDS011;45933;51.336;12.612;2022-11-20T15:55:20;22.83;;;14.40;;
60060;SDS011;45933;51.336;12.612;2022-11-20T15:57:45;20.57;;;13.07;;
60060;SDS011;45933;51.336;12.612;2022-11-20T16:00:11;19.03;;;12.93;;
60060;SDS011;45933;51.336;12.612;2022-11-20T16:02:36;17.17;;;11.23;;